Time;durP1;ratioP1;P1;durP2;ratioP2;P2;SDS_P1;SDS_P2;PMS_P1;PMS_P2;Temp;Humidity;BMP_temperature;BMP_pressure;BME280_temperature;BME280_humidity;BME280_pressure;Samples;Min_cycle;Max_cycle;Signal;HPM_P1;HPM_P2
2023/10/28 00:01:12;;;;;;;5.15;2.65;;;;;;;19.24;71.73;94021.56;5105112;28;20342;-68
2023/10/28 00:03:39;;;;;;;8.35;2.70;;;;;;;19.15;71.85;94020.56;5103814;28;20254;-68
2023/10/28 00:06:08;;;;;;;3.17;1.70;;;;;;;19.21;71.99;94024.41;5104258;28;20228;-68
2023/10/28 00:08:35;;;;;;;2.45;2.10;;;;;;;18.97;72.35;94025.50;5104026;28;20196;-67
2023/10/28 00:11:04;;;;;;;4.97;2.30;;;;;;;19.00;72.40;94020.09;5105650;28;20225;-67
2023/10/28 00:13:30;;;;;;;3.72;2.38;;;;;;;18.94;72.60;94035.22;5104115;28;20217;-68
2023/10/28 00:15:57;;;;;;;4.05;2.20;;;;;;;18.98;72.54;94039.19;5104114;28;20201;-67
2023/10/28 00:18:24;;;;;;;5.57;2.67;;;;;;;19.06;72.45;94035.94;5100832;28;20697;-65
2023/10/28 00:20:51;;;;;;;5.82;2.50;;;;;;;18.94;72.69;94041.19;5104726;28;20197;-68
2023/10/28 00:23:19;;;;;;;7.18;3.40;;;;;;;18.94;72.66;94028.31;5101230;28;20697;-66
2023/10/28 00:25:46;;;;;;;6.47;2.53;;;;;;;18.82;73.22;94026.75;5104763;28;20209;-66
2023/10/28 00:28:13;;;;;;;5.47;2.83;;;;;;;18.76;73.38;94034.97;5102122;28;20253;-67
2023/10/28 00:30:40;;;;;;;3.00;2.42;;;;;;;18.78;73.39;94040.00;5102852;28;20230;-67
2023/10/28 00:33:07;;;;;;;4.47;2.45;;;;;;;18.68;73.80;94037.34;5103962;28;20197;-68
2023/10/28 00:35:33;;;;;;;8.85;2.60;;;;;;;18.59;74.17;94045.78;5104401;28;20240;-68
2023/10/28 00:38:00;;;;;;;3.28;2.10;;;;;;;18.72;74.06;94037.94;5104425;28;20632;-67
2023/10/28 00:40:29;;;;;;;7.80;2.45;;;;;;;18.63;74.27;94040.31;5105444;28;20209;-67
2023/10/28 00:42:56;;;;;;;4.05;2.38;;;;;;;18.62;74.38;94045.56;5104733;28;20200;-68
2023/10/28 00:45:23;;;;;;;3.72;2.35;;;;;;;18.89;73.42;94040.75;5102524;28;20236;-69
2023/10/28 00:47:52;;;;;;;6.85;2.10;;;;;;;18.89;73.42;94040.75;5101403;28;20234;-68
2023/10/28 00:50:21;;;;;;;4.75;2.28;;;;;;;18.76;74.21;94057.34;5102694;28;20228;-69
2023/10/28 00:52:53;;;;;;;7.13;2.08;;;;;;;18.66;74.38;94042.63;5103601;28;20201;-67
2023/10/28 00:55:22;;;;;;;3.92;2.47;;;;;;;18.75;74.13;94041.06;5104456;28;20221;-68
2023/10/28 00:57:50;;;;;;;6.32;1.95;;;;;;;18.75;73.77;94048.78;5102073;28;20228;-69
2023/10/28 01:00:17;;;;;;;8.57;2.00;;;;;;;18.63;73.70;94035.16;5102119;28;20283;-68
2023/10/28 01:02:44;;;;;;;4.57;2.20;;;;;;;18.83;73.46;94045.56;5101606;28;20197;-67
2023/10/28 01:05:14;;;;;;;4.47;2.05;;;;;;;18.90;72.55;94042.38;5102706;28;20280;-67
2023/10/28 01:07:41;;;;;;;3.40;2.00;;;;;;;18.99;72.71;94044.22;5105177;28;20289;-67
2023/10/28 01:10:09;;;;;;;10.55;2.22;;;;;;;19.01;72.77;94049.22;5102359;28;20229;-69
2023/10/28 01:12:37;;;;;;;2.78;1.90;;;;;;;19.01;72.80;94054.38;5100883;28;20332;-68
2023/10/28 01:15:07;;;;;;;5.88;2.05;;;;;;;19.01;73.32;94050.06;5103184;28;20236;-69
2023/10/28 01:17:34;;;;;;;4.80;2.03;;;;;;;19.10;72.44;94047.63;5103387;28;20205;-69
2023/10/28 01:20:00;;;;;;;5.20;2.17;;;;;;;19.10;72.58;94039.91;5104755;28;20197;-67
2023/10/28 01:22:28;;;;;;;3.13;1.90;;;;;;;19.28;72.19;94046.94;5102721;28;20197;-69
2023/10/28 01:24:55;;;;;;;6.32;2.67;;;;;;;19.34;71.84;94055.91;5102747;28;20260;-69
2023/10/28 01:27:22;;;;;;;2.80;1.60;;;;;;;19.29;72.41;94040.00;5102815;28;20235;-70
2023/10/28 01:29:48;;;;;;;5.95;1.90;;;;;;;19.23;72.31;94058.56;5102553;28;20205;-69
2023/10/28 01:32:15;;;;;;;2.80;2.17;;;;;;;19.28;72.22;94056.44;5102032;28;20255;-68
2023/10/28 01:34:49;;;;;;;10.25;2.17;;;;;;;-96.20;72.14;94046.25;5104471;28;20223;-68
2023/10/28 01:37:16;;;;;;;7.63;1.75;;;;;;;19.38;71.31;94040.06;5104173;28;20203;-68
2023/10/28 01:39:46;;;;;;;4.47;1.90;;;;;;;19.41;71.17;94041.56;5105034;28;20197;-68
2023/10/28 01:42:13;;;;;;;4.68;1.73;;;;;;;19.29;71.89;94037.47;5103142;28;20196;-68
2023/10/28 01:44:40;;;;;;;3.88;1.95;;;;;;;19.26;71.63;94050.59;5103067;28;20252;-70
2023/10/28 01:47:08;;;;;;;3.72;1.80;;;;;;;19.32;71.28;94042.31;5100760;28;20204;-67
2023/10/28 01:49:35;;;;;;;2.17;1.60;;;;;;;19.33;70.95;94049.13;5102018;28;20225;-69
2023/10/28 01:52:03;;;;;;;3.90;1.50;;;;;;;19.33;70.48;94041.50;5103041;28;20296;-67
2023/10/28 01:54:30;;;;;;;2.50;1.70;;;;;;;19.46;70.29;94048.91;5102468;28;20492;-64
2023/10/28 01:56:58;;;;;;;5.10;1.65;;;;;;;19.46;69.99;94049.72;5097593;28;20207;-67
2023/10/28 01:59:25;;;;;;;3.05;1.52;;;;;;;19.40;70.37;94059.72;5099407;28;20197;-68
2023/10/28 02:01:52;;;;;;;4.97;1.38;;;;;;;19.50;69.87;94070.91;5101947;28;20228;-68
2023/10/28 02:04:19;;;;;;;2.00;1.27;;;;;;;19.55;69.63;94069.59;5102319;28;20219;-68
2023/10/28 02:06:45;;;;;;;4.43;1.27;;;;;;;19.55;69.64;94064.44;5102132;28;20677;-69
2023/10/28 02:09:13;;;;;;;2.17;1.77;;;;;;;19.55;69.46;94061.84;5098821;28;20205;-68
2023/10/28 02:11:40;;;;;;;3.65;1.90;;;;;;;19.49;69.51;94071.84;5103147;28;20242;-68
2023/10/28 02:14:08;;;;;;;6.03;1.73;;;;;;;19.50;69.95;94076.91;5104376;28;20228;-68
2023/10/28 02:16:36;;;;;;;4.40;1.85;;;;;;;19.46;69.70;94072.91;5105771;28;20207;-67
2023/10/28 02:19:03;;;;;;;2.67;1.48;;;;;;;19.47;70.00;94076.31;5105098;28;20670;-67
2023/10/28 02:21:30;;;;;;;3.40;2.10;;;;;;;19.30;70.58;94075.94;5104646;28;20201;-66
2023/10/28 02:23:57;;;;;;;4.10;2.47;;;;;;;19.13;71.50;94080.88;5104410;28;20216;-68
2023/10/28 02:26:23;;;;;;;2.70;2.45;;;;;;;19.06;71.77;94077.16;5104624;28;20202;-66
2023/10/28 02:28:50;;;;;;;5.22;2.58;;;;;;;18.89;72.52;94081.94;5104469;28;20213;-68
2023/10/28 02:31:18;;;;;;;3.88;2.00;;;;;;;18.62;73.75;94090.13;5104278;28;20224;-68
2023/10/28 02:33:45;;;;;;;5.38;2.95;;;;;;;18.58;73.80;94091.28;5105652;28;20678;-68
2023/10/28 02:36:12;;;;;;;5.38;2.58;;;;;;;18.41;74.84;94085.84;5103151;28;20250;-68
2023/10/28 02:38:40;;;;;;;6.30;2.53;;;;;;;18.34;75.25;94081.19;5107293;28;20221;-67
2023/10/28 02:41:07;;;;;;;5.00;3.00;;;;;;;18.48;74.92;94082.69;5105632;28;20233;-68
2023/10/28 02:43:35;;;;;;;8.98;2.90;;;;;;;18.27;75.55;94072.34;5104978;28;20281;-68
2023/10/28 02:46:03;;;;;;;4.32;2.60;;;;;;;18.18;75.98;94088.50;5101979;28;20226;-66
2023/10/28 02:48:31;;;;;;;2.83;2.40;;;;;;;18.11;76.32;94078.81;5101769;28;20233;-68
2023/10/28 02:51:04;;;;;;;5.97;2.60;;;;;;;18.20;76.21;94078.91;5104165;28;20197;-67
2023/10/28 02:53:31;;;;;;;2.85;2.17;;;;;;;17.90;77.17;94083.88;5105948;28;20216;-67
2023/10/28 02:55:57;;;;;;;9.43;2.40;;;;;;;17.96;76.79;94075.69;5105521;28;20224;-67
2023/10/28 02:58:24;;;;;;;5.32;2.40;;;;;;;17.94;77.12;94083.50;5105238;28;20234;-67
2023/10/28 03:00:51;;;;;;;6.82;2.65;;;;;;;17.96;77.00;94085.97;5106309;28;20193;-68
2023/10/28 03:03:17;;;;;;;5.10;2.38;;;;;;;17.80;77.57;94082.97;5106878;28;20232;-64
2023/10/28 03:05:45;;;;;;;3.60;2.20;;;;;;;17.71;78.43;94088.78;5106170;28;20224;-67
2023/10/28 03:08:13;;;;;;;5.97;2.70;;;;;;;17.59;78.48;94080.22;5103618;28;20201;-67
2023/10/28 03:10:40;;;;;;;3.88;2.70;;;;;;;17.59;78.76;94083.63;5106288;28;20223;-69
2023/10/28 03:13:06;;;;;;;4.80;2.40;;;;;;;17.47;79.10;94096.59;5106922;28;20678;-67
2023/10/28 03:15:33;;;;;;;5.05;2.50;;;;;;;17.46;79.23;94089.81;5104393;28;20253;-65
2023/10/28 03:18:00;;;;;;;2.55;2.35;;;;;;;17.24;80.18;94094.00;5106628;28;20207;-68
2023/10/28 03:20:27;;;;;;;7.30;2.53;;;;;;;17.22;80.46;94095.88;5104044;28;20300;-68
2023/10/28 03:22:55;;;;;;;5.65;2.50;;;;;;;17.24;80.58;94098.31;5107316;28;20205;-67
2023/10/28 03:25:22;;;;;;;8.73;2.22;;;;;;;17.00;81.11;94114.63;5105846;28;20247;-68
2023/10/28 03:27:48;;;;;;;3.30;2.90;;;;;;;17.08;81.20;94126.03;5107022;28;20209;-66
2023/10/28 03:30:15;;;;;;;8.60;2.67;;;;;;;17.05;81.34;94108.31;5107437;28;20229;-68
2023/10/28 03:32:42;;;;;;;4.03;2.78;;;;;;;17.06;81.36;94121.06;5105484;28;20221;-67
2023/10/28 03:35:09;;;;;;;7.38;3.38;;;;;;;17.08;81.45;94115.78;5106806;28;20225;-66
2023/10/28 03:37:37;;;;;;;5.32;2.92;;;;;;;17.17;81.08;94127.94;5107722;28;20204;-64
2023/10/28 03:40:07;;;;;;;2.97;2.63;;;;;;;17.20;81.25;94115.69;5105845;28;20675;-65
2023/10/28 03:42:34;;;;;;;4.82;2.95;;;;;;;17.21;80.71;94121.66;5101972;28;20250;-66
2023/10/28 03:45:00;;;;;;;5.78;3.30;;;;;;;16.99;81.63;94117.28;5105274;28;20237;-67
2023/10/28 03:47:29;;;;;;;3.75;2.85;;;;;;;17.02;81.70;94123.94;5104933;28;20297;-68
2023/10/28 03:49:56;;;;;;;6.22;2.70;;;;;;;17.03;81.46;94131.53;5106951;28;20639;-66
2023/10/28 03:52:23;;;;;;;7.47;3.38;;;;;;;16.98;81.55;94119.03;5107121;28;20193;-67
2023/10/28 03:54:50;;;;;;;5.32;2.90;;;;;;;17.09;81.22;94132.81;5107098;28;20257;-66
2023/10/28 03:57:18;;;;;;;10.00;4.07;;;;;;;17.07;81.62;94127.00;5104086;28;20219;-68
2023/10/28 03:59:46;;;;;;;18.42;10.15;;;;;;;16.93;82.06;94133.94;5106172;28;20201;-67
2023/10/28 04:02:13;;;;;;;6.80;3.33;;;;;;;17.08;81.47;94138.88;5106102;28;20279;-67
2023/10/28 04:04:40;;;;;;;7.22;3.47;;;;;;;16.97;82.14;94142.25;5100026;28;20206;-67
2023/10/28 04:07:07;;;;;;;4.95;2.85;;;;;;;17.14;81.08;94149.53;5104565;28;20269;-67
2023/10/28 04:09:35;;;;;;;12.20;3.50;;;;;;;17.06;81.42;94146.72;5104945;28;20219;-68
2023/10/28 04:12:01;;;;;;;7.40;3.08;;;;;;;16.95;81.84;94152.63;5102585;28;20287;-70
2023/10/28 04:14:29;;;;;;;6.63;3.08;;;;;;;16.86;82.55;94148.16;5104820;28;20229;-69
2023/10/28 04:16:56;;;;;;;7.57;3.05;;;;;;;16.65;83.33;94139.44;5104983;28;20251;-69
2023/10/28 04:19:23;;;;;;;6.18;3.75;;;;;;;16.72;83.23;94166.28;5106566;28;20262;-68
2023/10/28 04:21:50;;;;;;;6.35;3.60;;;;;;;16.66;83.65;94161.59;5106325;28;20678;-67
2023/10/28 04:24:18;;;;;;;3.80;3.22;;;;;;;16.70;83.71;94175.84;5105449;28;20209;-70
2023/10/28 04:26:45;;;;;;;7.10;3.17;;;;;;;16.48;84.46;94161.13;5105101;28;20204;-68
2023/10/28 04:29:12;;;;;;;5.82;3.15;;;;;;;16.49;84.82;94167.09;5104813;28;20288;-64
2023/10/28 04:31:40;;;;;;;7.35;3.08;;;;;;;16.47;85.04;94164.63;5105516;28;20261;-67
2023/10/28 04:34:06;;;;;;;4.60;3.22;;;;;;;16.64;83.92;94166.03;5104499;28;20239;-68
2023/10/28 04:36:33;;;;;;;4.75;3.00;;;;;;;16.48;84.72;94165.44;5105405;28;20213;-68
2023/10/28 04:39:01;;;;;;;9.30;3.25;;;;;;;16.45;84.92;94163.91;5103687;28;20197;-67
2023/10/28 04:41:28;;;;;;;5.03;3.38;;;;;;;16.64;84.10;94174.53;5103512;28;20209;-66
2023/10/28 04:43:55;;;;;;;4.22;3.28;;;;;;;16.77;83.38;94171.94;5102107;28;20204;-68
2023/10/28 04:46:22;;;;;;;3.15;2.95;;;;;;;16.59;84.12;94178.31;5102114;28;20224;-66
2023/10/28 04:48:50;;;;;;;7.40;2.70;;;;;;;16.62;84.38;94184.03;5100957;28;20208;-67
2023/10/28 04:51:17;;;;;;;5.20;3.20;;;;;;;16.48;84.70;94184.22;5102154;28;20581;-68
2023/10/28 04:53:44;;;;;;;6.05;3.08;;;;;;;16.64;84.23;94178.84;5103832;28;20867;-68
2023/10/28 04:56:11;;;;;;;9.57;3.38;;;;;;;16.76;83.70;94190.00;5103380;28;20220;-67
2023/10/28 04:58:38;;;;;;;5.03;3.60;;;;;;;16.63;84.07;94190.84;5104340;28;20269;-67
2023/10/28 05:01:05;;;;;;;9.45;6.40;;;;;;;16.60;84.17;94190.22;5103906;28;20201;-68
2023/10/28 05:03:32;;;;;;;4.47;3.58;;;;;;;16.31;85.18;94185.41;5103418;28;20193;-68
2023/10/28 05:06:00;;;;;;;7.95;4.53;;;;;;;16.61;84.30;94191.84;5104885;28;20196;-68
2023/10/28 05:08:28;;;;;;;5.20;3.83;;;;;;;16.56;84.38;94188.81;5105171;28;21135;-66
2023/10/28 05:10:55;;;;;;;13.32;4.32;;;;;;;16.71;83.84;94195.44;5104537;28;20201;-67
2023/10/28 05:13:21;;;;;;;4.97;3.70;;;;;;;16.63;83.73;94203.69;5105632;28;20208;-68
2023/10/28 05:15:48;;;;;;;6.65;4.43;;;;;;;16.52;84.15;94213.84;5104223;28;20273;-67
2023/10/28 05:18:15;;;;;;;7.78;4.15;;;;;;;16.59;84.14;94199.66;5104890;28;20212;-69
2023/10/28 05:20:43;;;;;;;6.80;4.30;;;;;;;16.64;83.81;94212.19;5104594;28;20212;-68
2023/10/28 05:23:13;;;;;;;4.35;3.75;;;;;;;16.40;84.53;94219.81;5105206;28;20204;-67
2023/10/28 05:25:39;;;;;;;8.07;3.58;;;;;;;16.60;83.80;94226.13;5103782;28;20578;-68
2023/10/28 05:28:06;;;;;;;8.63;4.25;;;;;;;16.61;83.58;94222.63;5104680;28;20236;-68
2023/10/28 05:30:33;;;;;;;13.00;4.93;;;;;;;16.70;83.46;94227.16;5104576;28;20205;-70
2023/10/28 05:33:00;;;;;;;7.13;4.45;;;;;;;16.77;83.25;94248.91;5102926;28;20292;-67
2023/10/28 05:35:27;;;;;;;8.80;5.10;;;;;;;16.84;83.09;94239.81;5100337;28;20233;-69
2023/10/28 05:37:53;;;;;;;7.38;4.40;;;;;;;16.95;82.18;94236.50;5102787;28;20240;-70
2023/10/28 05:40:22;;;;;;;15.88;7.82;;;;;;;16.91;82.39;94251.28;5104052;28;20193;-67
2023/10/28 05:42:49;;;;;;;9.95;5.00;;;;;;;16.79;83.14;94248.78;5100766;28;20262;-68
2023/10/28 05:45:16;;;;;;;20.88;8.52;;;;;;;16.73;83.48;94252.59;5104521;28;20257;-68
2023/10/28 05:47:42;;;;;;;11.57;5.63;;;;;;;16.74;83.29;94261.94;5104554;28;20250;-68
2023/10/28 05:50:10;;;;;;;13.35;8.57;;;;;;;16.87;82.96;94260.13;5103697;28;20637;-68
2023/10/28 05:52:38;;;;;;;10.13;5.68;;;;;;;17.23;81.41;94254.13;5105105;28;20229;-68
2023/10/28 05:55:05;;;;;;;16.50;6.85;;;;;;;17.14;81.70;94262.47;5105054;28;20225;-70
2023/10/28 05:57:33;;;;;;;9.27;5.63;;;;;;;17.18;81.67;94273.34;5104889;28;20247;-69
2023/10/28 06:00:00;;;;;;;10.57;5.75;;;;;;;17.04;81.92;94258.13;5103629;28;20205;-69
2023/10/28 06:02:26;;;;;;;16.52;6.85;;;;;;;17.36;81.00;94277.16;5103204;28;20258;-67
2023/10/28 06:04:53;;;;;;;11.13;5.75;;;;;;;17.45;80.55;94281.63;5104837;28;20224;-69
2023/10/28 06:07:20;;;;;;;7.60;6.07;;;;;;;17.71;80.07;94291.78;5104748;28;20669;-69
2023/10/28 06:09:47;;;;;;;9.30;5.72;;;;;;;17.81;79.22;94292.75;5104127;28;20642;-68
2023/10/28 06:12:14;;;;;;;9.50;6.03;;;;;;;17.80;79.07;94278.28;5103627;28;20209;-68
2023/10/28 06:14:43;;;;;;;7.75;5.70;;;;;;;18.06;78.38;94284.88;5102704;28;20591;-68
2023/10/28 06:17:10;;;;;;;8.30;5.18;;;;;;;18.51;76.36;94295.16;5104128;28;20217;-67
2023/10/28 06:19:37;;;;;;;12.70;5.40;;;;;;;19.41;72.89;94299.22;5103851;28;20204;-67
2023/10/28 06:22:04;;;;;;;11.18;6.03;;;;;;;20.54;68.92;94295.09;5105393;28;20232;-67
2023/10/28 06:24:30;;;;;;;9.18;6.53;;;;;;;21.23;65.72;94297.75;5103496;28;20236;-69
2023/10/28 06:26:59;;;;;;;12.13;5.45;;;;;;;21.65;63.38;94314.66;5103361;28;20197;-64
2023/10/28 06:29:25;;;;;;;6.90;5.38;;;;;;;22.09;62.49;94317.63;5101039;28;20305;-66
2023/10/28 06:31:53;;;;;;;13.93;6.15;;;;;;;22.53;61.27;94307.56;5102937;28;20237;-66
2023/10/28 06:34:20;;;;;;;17.35;5.05;;;;;;;22.44;60.80;94321.38;5103407;28;20233;-67
2023/10/28 06:36:47;;;;;;;26.25;16.75;;;;;;;22.52;60.90;94324.09;5100616;28;20220;-67
2023/10/28 06:39:16;;;;;;;20.77;11.77;;;;;;;22.69;59.89;94328.50;5101960;28;20298;-66
2023/10/28 06:41:42;;;;;;;9.93;5.93;;;;;;;22.76;59.46;94332.16;5102012;28;20282;-68
2023/10/28 06:44:09;;;;;;;13.38;5.47;;;;;;;22.82;59.16;94313.47;5102213;28;20697;-68
2023/10/28 06:46:36;;;;;;;10.20;4.38;;;;;;;23.40;57.87;94336.50;5102028;28;20232;-66
2023/10/28 06:49:08;;;;;;;8.25;4.32;;;;;;;24.02;55.46;94327.00;5101257;28;20205;-70
2023/10/28 06:51:34;;;;;;;26.42;15.70;;;;;;;24.09;55.13;94328.88;5101756;28;20693;-67
2023/10/28 06:54:01;;;;;;;21.95;13.73;;;;;;;23.89;55.50;94340.38;5102441;28;20690;-67
2023/10/28 06:56:28;;;;;;;14.73;8.35;;;;;;;23.49;56.37;94351.19;5101210;28;20297;-71
2023/10/28 06:58:55;;;;;;;17.48;5.95;;;;;;;22.91;57.98;94356.66;5103262;28;20667;-69
2023/10/28 07:01:22;;;;;;;9.77;5.28;;;;;;;22.26;60.17;94354.94;5103216;28;20225;-69
2023/10/28 07:03:49;;;;;;;7.05;4.90;;;;;;;21.97;61.04;94354.94;5106731;28;20205;-69
2023/10/28 07:06:17;;;;;;;11.50;5.20;;;;;;;21.70;61.85;94359.03;5104498;28;20255;-68
2023/10/28 07:08:45;;;;;;;9.02;4.50;;;;;;;21.72;62.06;94359.69;5102884;28;20198;-68
2023/10/28 07:11:13;;;;;;;6.63;4.25;;;;;;;21.86;61.92;94363.66;5104964;28;20202;-69
2023/10/28 07:13:40;;;;;;;8.07;5.03;;;;;;;22.21;60.85;94372.66;5105172;28;20222;-68
2023/10/28 07:16:07;;;;;;;7.03;5.03;;;;;;;22.34;60.35;94370.56;5106564;28;20250;-68
2023/10/28 07:18:34;;;;;;;11.70;6.22;;;;;;;22.21;60.56;94381.22;5106673;28;20209;-70
2023/10/28 07:21:03;;;;;;;6.90;6.00;;;;;;;22.03;60.58;94382.84;5107828;28;20215;-71
2023/10/28 07:23:31;;;;;;;13.77;5.70;;;;;;;22.02;61.01;94381.25;5104988;28;20227;-69
2023/10/28 07:25:59;;;;;;;13.88;6.28;;;;;;;21.80;61.24;94384.88;5106467;28;20197;-68
2023/10/28 07:28:27;;;;;;;11.25;5.13;;;;;;;21.62;62.00;94382.13;5105603;28;20284;-70
2023/10/28 07:30:53;;;;;;;15.02;6.30;;;;;;;21.46;62.54;94387.03;5102360;28;20220;-68
2023/10/28 07:33:21;;;;;;;9.60;5.00;;;;;;;21.59;62.13;94371.25;5103209;28;20212;-71
2023/10/28 07:35:50;;;;;;;8.88;5.10;;;;;;;21.76;61.94;94373.19;5105071;28;20224;-70
2023/10/28 07:38:17;;;;;;;8.15;5.03;;;;;;;22.18;60.79;94365.16;5105384;28;20898;-68
2023/10/28 07:40:46;;;;;;;10.88;5.60;;;;;;;22.45;60.12;94369.59;5106607;28;20678;-67
2023/10/28 07:43:13;;;;;;;10.20;5.20;;;;;;;22.64;59.42;94374.72;5105862;28;20262;-68
2023/10/28 07:45:41;;;;;;;6.65;4.93;;;;;;;22.55;59.37;94381.56;5104700;28;20252;-68
2023/10/28 07:48:08;;;;;;;12.70;5.53;;;;;;;22.09;60.58;94374.56;5106374;28;20197;-70
2023/10/28 07:50:35;;;;;;;10.48;4.53;;;;;;;21.84;61.19;94380.25;5105868;28;20616;-68
2023/10/28 07:53:04;;;;;;;8.57;5.03;;;;;;;21.97;61.25;94380.81;5107011;28;20241;-64
2023/10/28 07:55:31;;;;;;;5.22;4.20;;;;;;;22.10;60.60;94385.72;5104231;28;20204;-66
2023/10/28 07:57:59;;;;;;;14.45;5.47;;;;;;;22.38;59.85;94380.50;5106556;28;20228;-67
2023/10/28 08:00:26;;;;;;;16.25;5.10;;;;;;;22.46;59.49;94387.59;5102940;28;20682;-67
2023/10/28 08:02:53;;;;;;;12.77;5.60;;;;;;;22.26;60.17;94391.19;5103849;28;20205;-70
2023/10/28 08:05:20;;;;;;;9.95;5.68;;;;;;;22.16;61.06;94391.16;5106318;28;20671;-64
2023/10/28 08:07:48;;;;;;;15.43;5.93;;;;;;;22.25;60.65;94400.72;5104915;28;20193;-68
2023/10/28 08:10:16;;;;;;;12.63;4.43;;;;;;;22.50;60.12;94388.94;5107065;28;20224;-68
2023/10/28 08:12:43;;;;;;;10.48;5.60;;;;;;;22.58;59.83;94383.06;5105340;28;20197;-67
2023/10/28 08:15:12;;;;;;;10.25;4.40;;;;;;;23.79;57.12;94401.09;5106998;28;20211;-68
2023/10/28 08:17:38;;;;;;;8.50;5.43;;;;;;;25.30;53.25;94392.13;5106578;28;20661;-68
2023/10/28 08:20:06;;;;;;;19.30;5.95;;;;;;;26.36;49.32;94394.00;5107140;28;20200;-68
2023/10/28 08:22:35;;;;;;;8.00;4.28;;;;;;;26.70;48.31;94395.63;5104845;28;20686;-68
2023/10/28 08:25:04;;;;;;;13.40;5.75;;;;;;;27.02;47.16;94392.16;5106322;28;20264;-64
2023/10/28 08:27:31;;;;;;;13.75;4.70;;;;;;;27.47;46.53;94388.09;5104625;28;20197;-69
2023/10/28 08:29:59;;;;;;;5.53;3.40;;;;;;;28.17;44.75;94388.81;5106990;28;20682;-69
2023/10/28 08:32:27;;;;;;;8.50;4.00;;;;;;;28.91;42.96;94392.47;5101984;28;21390;-65
2023/10/28 08:34:55;;;;;;;8.63;3.53;;;;;;;28.98;42.40;94389.94;5103479;28;20230;-65
2023/10/28 08:37:23;;;;;;;9.88;3.22;;;;;;;28.82;42.46;94393.53;5101406;27;20223;-64
2023/10/28 08:39:49;;;;;;;9.15;3.67;;;;;;;28.51;43.29;94387.59;5102496;28;20563;-65
2023/10/28 08:42:17;;;;;;;3.83;3.20;;;;;;;28.85;43.50;94390.56;5103497;28;20626;-65
2023/10/28 08:44:44;;;;;;;9.82;4.53;;;;;;;29.27;42.24;94389.94;5103122;28;20323;-65
2023/10/28 08:47:11;;;;;;;8.63;6.63;;;;;;;29.68;41.13;94399.94;5103190;28;20208;-66
2023/10/28 08:49:42;;;;;;;24.45;13.68;;;;;;;29.94;40.61;94395.00;5103124;28;20313;-65
2023/10/28 08:52:12;;;;;;;9.20;3.80;;;;;;;30.03;39.71;94398.34;5102685;28;20224;-66
2023/10/28 08:54:40;;;;;;;4.03;2.65;;;;;;;30.05;39.62;94394.53;5100838;28;20221;-66
2023/10/28 08:57:08;;;;;;;10.27;3.25;;;;;;;29.68;40.23;94381.63;5104359;28;20244;-67
2023/10/28 08:59:36;;;;;;;9.82;3.88;;;;;;;29.26;41.38;94390.13;5102863;28;20236;-67
2023/10/28 09:02:08;;;;;;;6.38;3.00;;;;;;;28.69;41.84;94388.09;5104017;28;20688;-68
2023/10/28 09:04:34;;;;;;;8.32;4.78;;;;;;;28.64;42.39;94396.47;5103151;27;20213;-66
2023/10/28 09:07:04;;;;;;;8.60;4.20;;;;;;;28.59;41.96;94397.97;5103496;28;20250;-65
2023/10/28 09:09:31;;;;;;;15.63;8.35;;;;;;;28.53;42.53;94388.22;5105811;28;20223;-66
2023/10/28 09:11:59;;;;;;;10.52;7.03;;;;;;;28.65;41.77;94381.59;5103773;28;20193;-66
2023/10/28 09:14:26;;;;;;;8.25;2.78;;;;;;;28.87;40.74;94395.63;5100420;28;20207;-66
2023/10/28 09:16:55;;;;;;;14.02;3.15;;;;;;;29.06;40.42;94389.84;5104805;28;20648;-67
2023/10/28 09:19:22;;;;;;;6.40;2.88;;;;;;;29.28;39.46;94383.72;5104679;28;20690;-66
2023/10/28 09:21:49;;;;;;;17.80;8.43;;;;;;;29.41;40.36;94383.13;5105460;28;20274;-66
2023/10/28 09:24:17;;;;;;;5.80;3.00;;;;;;;29.64;39.64;94388.22;5103139;28;20877;-67
2023/10/28 09:26:46;;;;;;;8.73;3.25;;;;;;;29.14;39.28;94381.13;5103174;28;20205;-66
2023/10/28 09:29:24;;;;;;;7.00;3.13;;;;;;;28.86;39.05;94379.13;5103163;28;20736;-71
2023/10/28 09:31:51;;;;;;;4.20;2.35;;;;;;;28.94;38.76;94381.66;5104447;28;20291;-71
2023/10/28 09:34:17;;;;;;;3.72;2.47;;;;;;;29.11;39.28;94383.09;5105062;28;20298;-69
2023/10/28 09:36:44;;;;;;;3.20;2.85;;;;;;;29.46;39.02;94375.50;5105036;28;20217;-71
2023/10/28 09:39:13;;;;;;;6.18;2.15;;;;;;;29.88;37.84;94379.22;5104501;28;20312;-70
2023/10/28 09:41:42;;;;;;;6.47;2.28;;;;;;;30.15;36.60;94375.88;5103964;28;20201;-69
2023/10/28 09:44:11;;;;;;;7.53;2.88;;;;;;;30.21;34.94;94380.34;5097527;28;20260;-68
2023/10/28 09:46:40;;;;;;;3.83;1.50;;;;;;;30.12;33.78;94373.63;5078950;28;20201;-71
2023/10/28 09:49:10;;;;;;;2.33;1.48;;;;;;;29.89;33.82;94378.22;5071191;28;20665;-67
2023/10/28 09:51:40;;;;;;;4.88;1.58;;;;;;;29.90;34.10;94382.47;5083552;28;20237;-70
2023/10/28 09:54:11;;;;;;;4.40;1.70;;;;;;;29.38;34.47;94372.97;5084133;28;20210;-70
2023/10/28 09:56:38;;;;;;;5.88;1.55;;;;;;;29.26;34.99;94374.41;5084116;28;20333;-69
2023/10/28 09:59:14;;;;;;;6.25;1.80;;;;;;;29.34;34.02;94371.72;5084630;28;20233;-67
2023/10/28 10:01:50;;;;;;;8.32;1.83;;;;;;;28.91;34.29;94365.50;5083015;28;20216;-68
2023/10/28 10:04:30;;;;;;;4.50;1.17;;;;;;;28.60;34.82;94369.03;5084155;28;20197;-71
2023/10/28 10:06:57;;;;;;;2.35;1.55;;;;;;;28.53;35.19;94357.66;5083195;28;20678;-70
2023/10/28 10:09:24;;;;;;;5.43;1.55;;;;;;;28.29;34.87;94350.84;5083544;28;20193;-69
2023/10/28 10:11:51;;;;;;;4.25;1.58;;;;;;;28.05;35.19;94364.91;5083846;28;20197;-67
2023/10/28 10:14:21;;;;;;;3.47;1.73;;;;;;;27.68;36.41;94352.59;5083048;28;20202;-67
2023/10/28 10:16:55;;;;;;;5.10;1.17;;;;;;;27.53;36.14;94348.22;5084160;28;20612;-70
2023/10/28 10:19:27;;;;;;;1.90;1.48;;;;;;;27.62;36.11;94337.63;5082143;28;20222;-69
2023/10/28 10:21:54;;;;;;;5.05;2.03;;;;;;;27.43;36.36;94343.25;5083799;28;20241;-68
2023/10/28 10:24:22;;;;;;;6.43;2.40;;;;;;;27.34;36.61;94349.47;5083044;28;20283;-69
2023/10/28 10:26:55;;;;;;;3.50;1.75;;;;;;;27.49;36.42;94352.97;5084507;28;20208;-67
2023/10/28 10:29:26;;;;;;;11.68;7.65;;;;;;;27.70;36.15;94355.84;5079876;28;20197;-66
2023/10/28 10:31:55;;;;;;;31.95;20.60;;;;;;;27.70;36.51;94337.56;5083537;28;20221;-66
2023/10/28 10:34:39;;;;;;;21.70;15.98;;;;;;;27.66;36.25;94336.28;5082766;28;20213;-67
2023/10/28 10:37:09;;;;;;;4.25;3.28;;;;;;;27.30;35.29;94328.13;5086667;28;20762;-65
2023/10/28 10:39:56;;;;;;;12.07;6.75;;;;;;;27.10;36.23;94346.00;5085103;28;20214;-65
2023/10/28 10:42:25;;;;;;;5.28;4.47;;;;;;;27.21;36.47;94344.81;5084775;28;20206;-66
2023/10/28 10:44:53;;;;;;;13.68;3.15;;;;;;;27.13;35.55;94331.81;5085800;28;20241;-66
2023/10/28 10:47:21;;;;;;;3.63;2.78;;;;;;;27.09;36.27;94340.94;5083479;28;20672;-65
2023/10/28 10:49:49;;;;;;;8.15;1.98;;;;;;;27.14;36.88;94337.84;5085827;28;20204;-67
2023/10/28 10:52:17;;;;;;;8.43;2.65;;;;;;;27.25;36.99;94330.44;5083352;28;20267;-65
2023/10/28 10:54:43;;;;;;;10.20;2.50;;;;;;;27.12;37.22;94335.41;5083987;28;20285;-67
2023/10/28 10:57:10;;;;;;;4.85;2.90;;;;;;;27.05;37.72;94330.03;5084304;28;20345;-66
2023/10/28 10:59:39;;;;;;;6.18;1.85;;;;;;;26.60;38.52;94345.47;5084326;28;20202;-65
2023/10/28 11:02:10;;;;;;;4.22;1.73;;;;;;;26.48;39.52;94326.75;5084781;28;20198;-65
2023/10/28 11:04:37;;;;;;;7.15;2.30;;;;;;;26.47;39.83;94337.34;5084584;28;20208;-65
2023/10/28 11:07:07;;;;;;;12.55;5.40;;;;;;;26.44;41.07;94330.69;5086934;28;20243;-65
2023/10/28 11:09:34;;;;;;;4.80;1.88;;;;;;;26.45;39.61;94331.50;5085936;28;21339;-66
2023/10/28 11:12:01;;;;;;;3.13;1.33;;;;;;;26.36;39.66;94328.88;5083601;28;20202;-65
2023/10/28 11:14:29;;;;;;;6.50;1.70;;;;;;;26.41;39.91;94321.41;5083357;28;20292;-64
2023/10/28 11:16:56;;;;;;;6.97;2.20;;;;;;;26.14;40.31;94334.75;5086153;28;20226;-65
2023/10/28 11:19:24;;;;;;;4.93;1.75;;;;;;;26.16;40.46;94326.75;5083832;28;20226;-66
2023/10/28 11:21:50;;;;;;;4.82;1.92;;;;;;;25.89;40.50;94325.31;5087775;28;20229;-66
2023/10/28 11:24:17;;;;;;;3.83;3.00;;;;;;;25.79;41.44;94335.03;5084234;28;20201;-63
2023/10/28 11:26:46;;;;;;;4.10;2.20;;;;;;;25.85;41.36;94329.19;5081557;28;20221;-65
2023/10/28 11:29:16;;;;;;;4.90;2.10;;;;;;;25.87;42.05;94332.44;5085357;28;20618;-65
2023/10/28 11:31:42;;;;;;;6.57;2.75;;;;;;;26.12;40.95;94326.28;5081153;28;20249;-64
2023/10/28 11:34:09;;;;;;;5.30;2.28;;;;;;;26.28;38.27;94330.66;5082826;28;20203;-63